Hovedside
METAR-TAF:

METAR-TAF

Lufthavner :

Phuket internasjonale lufthavn

Phuket, Thailand

breddegrad: 08-07N, lengdegrad: 098-19E, høyde over havet: 6 m

Gjeldene værobservasjon

Denne rapporten ble laget for 42 minutter siden, klokken 17:30 UTC
Vind 6 kt fra Vest-sørvest
Temperatur 28°C
Luftfuktighet 89%
Trykk 1008 hPa
Sikt 10 km eller mer
Få skyer i en høyde av 2000 ft

METAR: VTSP 151730Z 25006KT 9999 FEW020 28/26 Q1008 NOSIG

Tid: 01:12 (18:12 UTC)

Varsel

Denne rapporten ble laget for 1 time og 12 minutter siden, klokken 17:00 UTC
Varsel gyldig fra 15. klokken 18 UTC til 16. klokken 24 UTC
Vind 7 kt fra Vest
Sikt 10 km eller mer
Spredte skyer i en høyde av 2000 ft

TAF: VTSP 151700Z 1518/1624 27007KT 9999 SCT020

Værobservasjoner og værvarsel for over 4000 flyplasser (METAR- og TAF-rapporter).

Tilgjengelige stasjoner er representert av de røde og gule prikkene på kartet.

Hold musepekeren over prikken for å se navnet på stasjonen.

Klikk så for å se værobservasjoner og -varsler.

For å forandre kartet kan du klikke på den grønne knappen med svart kryss for å zoome inn, på den grønne knappen med strek for å zoome ut, eller på de grønne pilene for å se tilstøtende kart.


METAR-TAF: